createdAt,value
2018-05-06T00:00:37.136Z,10.50
2018-05-06T00:03:04.579Z,10.60
2018-05-06T00:05:32.294Z,10.60
2018-05-06T00:07:59.738Z,10.70
2018-05-06T00:10:27.195Z,10.90
2018-05-06T00:12:54.655Z,10.90
2018-05-06T00:15:22.115Z,11.00
2018-05-06T00:17:49.556Z,11.00
2018-05-06T00:20:17.023Z,10.80
2018-05-06T00:22:44.474Z,10.70
2018-05-06T00:25:11.923Z,10.70
2018-05-06T00:27:39.379Z,10.70
2018-05-06T00:30:06.825Z,10.50
2018-05-06T00:32:34.284Z,10.50
2018-05-06T00:35:01.741Z,10.40
2018-05-06T00:37:29.183Z,10.50
2018-05-06T00:39:56.629Z,10.60
2018-05-06T00:42:24.094Z,10.80
2018-05-06T00:44:52.019Z,10.80
2018-05-06T00:47:19.469Z,10.70
2018-05-06T00:49:46.910Z,10.70
2018-05-06T00:52:14.378Z,10.80
2018-05-06T00:54:44.534Z,10.70
2018-05-06T00:57:12.006Z,10.50
2018-05-06T00:59:39.447Z,10.50
2018-05-06T01:02:07.654Z,10.30
2018-05-06T01:04:36.058Z,10.30
2018-05-06T01:07:03.514Z,10.30
2018-05-06T01:09:31.092Z,10.20
2018-05-06T01:11:58.551Z,10.20
2018-05-06T01:14:26.007Z,10.30
2018-05-06T01:16:53.459Z,10.20
2018-05-06T01:19:20.910Z,10.20
2018-05-06T01:21:48.351Z,10.20
2018-05-06T01:24:15.806Z,10.20
2018-05-06T01:26:43.264Z,10.20
2018-05-06T01:29:10.704Z,10.10
2018-05-06T01:31:38.143Z,10.10
2018-05-06T01:34:05.598Z,10.00
2018-05-06T01:36:33.812Z,9.90
2018-05-06T01:39:01.254Z,9.80
2018-05-06T01:41:28.689Z,9.70
2018-05-06T01:43:56.142Z,9.40
2018-05-06T01:46:24.347Z,8.80
2018-05-06T01:48:51.805Z,8.80
2018-05-06T01:51:19.247Z,8.70
2018-05-06T01:53:46.694Z,8.70
2018-05-06T01:56:14.547Z,8.60
2018-05-06T01:58:42.750Z,8.60
2018-05-06T02:01:10.198Z,8.50
2018-05-06T02:03:37.659Z,8.50
2018-05-06T02:06:05.099Z,8.60
2018-05-06T02:08:32.533Z,8.50
2018-05-06T02:10:59.990Z,8.60
2018-05-06T02:13:27.434Z,8.70
2018-05-06T02:15:55.178Z,8.80
2018-05-06T02:18:22.627Z,8.80
2018-05-06T02:20:50.089Z,8.90
2018-05-06T02:23:17.534Z,8.80
2018-05-06T02:25:44.990Z,8.90
2018-05-06T02:28:12.432Z,8.80
2018-05-06T02:30:39.884Z,8.80
2018-05-06T02:33:07.443Z,8.80
2018-05-06T02:35:34.891Z,8.90
2018-05-06T02:38:03.105Z,8.70
2018-05-06T02:40:30.570Z,8.70
2018-05-06T02:42:58.015Z,8.70
2018-05-06T02:45:25.463Z,8.60
2018-05-06T02:47:52.918Z,8.60
2018-05-06T02:50:20.358Z,8.60
2018-05-06T02:52:47.804Z,8.60
2018-05-06T02:55:16.014Z,8.50
2018-05-06T02:57:43.450Z,8.50
2018-05-06T03:00:10.924Z,8.40
2018-05-06T03:02:38.365Z,8.30
2018-05-06T03:05:05.814Z,8.10
2018-05-06T03:07:34.019Z,7.80
2018-05-06T03:10:01.458Z,7.80
2018-05-06T03:12:28.918Z,7.70
2018-05-06T03:14:56.365Z,7.70
2018-05-06T03:17:23.810Z,7.70
2018-05-06T03:19:51.250Z,7.80
2018-05-06T03:22:19.461Z,7.70
2018-05-06T03:24:46.906Z,7.70
2018-05-06T03:27:14.352Z,7.70
2018-05-06T03:29:42.557Z,7.60
2018-05-06T03:32:10.007Z,7.60
2018-05-06T03:34:38.297Z,7.50
2018-05-06T03:37:05.751Z,7.50
2018-05-06T03:39:34.149Z,7.40
2018-05-06T03:42:01.589Z,7.30
2018-05-06T03:44:29.096Z,7.20
2018-05-06T03:46:56.535Z,7.20
2018-05-06T03:49:23.985Z,7.10
2018-05-06T03:51:51.427Z,7.00
2018-05-06T03:54:19.506Z,7.10
2018-05-06T03:56:59.811Z,7.20
2018-05-06T03:59:39.836Z,7.30
2018-05-06T04:15:44.110Z,7.10
2018-05-06T04:18:11.564Z,7.30
2018-05-06T04:20:39.022Z,7.50
2018-05-06T04:23:06.461Z,7.70
2018-05-06T04:25:33.931Z,7.90
2018-05-06T04:28:01.811Z,8.10
2018-05-06T04:30:29.260Z,8.30
2018-05-06T04:32:56.710Z,8.50
2018-05-06T04:35:24.161Z,8.60
2018-05-06T04:37:51.619Z,8.80
2018-05-06T04:40:19.057Z,9.00
2018-05-06T04:42:47.648Z,9.10
2018-05-06T04:45:15.093Z,9.20
2018-05-06T04:47:42.534Z,9.30
2018-05-06T04:50:10.750Z,9.80
2018-05-06T04:52:38.200Z,9.80
2018-05-06T04:55:05.656Z,10.20
2018-05-06T04:57:33.113Z,10.60
2018-05-06T05:00:00.574Z,11.00
2018-05-06T05:02:28.056Z,11.30
2018-05-06T05:04:56.111Z,11.60
2018-05-06T05:07:23.566Z,11.80
2018-05-06T05:09:51.017Z,12.10
2018-05-06T05:12:18.468Z,12.40
2018-05-06T05:14:45.924Z,12.70
2018-05-06T05:17:13.385Z,12.90
2018-05-06T05:19:40.830Z,13.20
2018-05-06T05:22:08.271Z,13.50
2018-05-06T05:24:36.487Z,14.10
2018-05-06T05:27:03.929Z,14.10
2018-05-06T05:29:31.383Z,14.40
2018-05-06T05:31:58.829Z,14.60
2018-05-06T05:34:26.316Z,14.30
2018-05-06T05:36:53.731Z,14.20
2018-05-06T05:39:21.950Z,14.70
2018-05-06T05:41:49.403Z,14.70
2018-05-06T05:44:16.857Z,15.10
2018-05-06T05:46:44.606Z,15.60
2018-05-06T05:49:12.071Z,16.10
2018-05-06T05:51:39.516Z,16.20
2018-05-06T05:54:06.967Z,16.30
2018-05-06T05:56:34.425Z,16.50
2018-05-06T05:59:01.895Z,16.50
2018-05-06T06:01:29.430Z,16.70
2018-05-06T06:03:56.800Z,17.00
2018-05-06T06:06:24.253Z,17.30
2018-05-06T06:08:51.690Z,17.40
2018-05-06T06:11:19.907Z,17.90
2018-05-06T06:13:47.351Z,17.90
2018-05-06T06:16:14.819Z,18.10
2018-05-06T06:18:42.259Z,18.10
2018-05-06T06:21:09.710Z,18.60
2018-05-06T06:23:37.154Z,19.10
2018-05-06T06:26:04.605Z,19.60
2018-05-06T06:28:32.815Z,20.50
2018-05-06T06:31:00.279Z,20.50
2018-05-06T06:33:27.723Z,20.50
2018-05-06T06:35:55.182Z,20.10
2018-05-06T06:38:22.691Z,19.80
2018-05-06T06:40:50.075Z,20.00
2018-05-06T06:43:17.547Z,20.20
2018-05-06T06:45:45.751Z,21.00
2018-05-06T06:48:13.196Z,21.00
2018-05-06T06:50:40.656Z,21.40
2018-05-06T06:53:08.096Z,21.80
2018-05-06T06:55:35.548Z,22.30
2018-05-06T06:58:03.007Z,22.70
2018-05-06T07:00:31.118Z,22.70
2018-05-06T07:02:58.580Z,23.30
2018-05-06T07:05:26.158Z,23.80
2018-05-06T07:07:54.043Z,24.10
2018-05-06T07:10:21.490Z,24.60
2018-05-06T07:12:49.715Z,25.40
2018-05-06T07:15:17.894Z,25.30
2018-05-06T07:17:45.352Z,26.00
2018-05-06T07:20:12.795Z,25.90
2018-05-06T07:22:40.259Z,25.50
2018-05-06T07:25:07.708Z,25.40
2018-05-06T07:27:35.159Z,25.50
2018-05-06T07:30:02.642Z,25.10
2018-05-06T07:32:30.073Z,24.80
2018-05-06T07:34:57.527Z,24.80
2018-05-06T07:37:25.000Z,24.80
2018-05-06T07:39:52.454Z,24.00
2018-05-06T07:42:19.904Z,23.50
2018-05-06T07:44:47.356Z,24.00
2018-05-06T07:47:14.810Z,24.90
2018-05-06T07:49:42.262Z,25.80
2018-05-06T07:52:09.724Z,25.90
2018-05-06T07:54:37.207Z,24.50
2018-05-06T07:57:04.655Z,23.60
2018-05-06T07:59:32.114Z,23.40
2018-05-06T08:01:59.898Z,24.20
2018-05-06T08:04:27.355Z,24.40
2018-05-06T08:06:54.803Z,24.60
2018-05-06T08:09:22.567Z,24.10
2018-05-06T08:11:50.014Z,24.40
2018-05-06T08:14:17.473Z,24.60
2018-05-06T08:16:44.928Z,25.30
2018-05-06T08:19:12.383Z,25.40
2018-05-06T08:21:39.822Z,26.10
2018-05-06T08:24:07.291Z,26.80
2018-05-06T08:26:34.735Z,26.50
2018-05-06T08:29:02.176Z,26.50
2018-05-06T08:31:29.622Z,26.10
2018-05-06T08:33:57.834Z,25.40
2018-05-06T08:36:25.947Z,25.30
2018-05-06T08:38:53.390Z,25.10
2018-05-06T08:41:20.837Z,24.40
2018-05-06T08:43:48.842Z,24.20
2018-05-06T08:46:17.066Z,26.10
2018-05-06T08:48:44.512Z,26.10
2018-05-06T08:51:11.970Z,26.10
2018-05-06T08:53:39.410Z,25.90
2018-05-06T08:56:06.850Z,25.60
2018-05-06T08:58:35.069Z,25.70
2018-05-06T09:01:02.519Z,25.70
2018-05-06T09:03:29.986Z,26.10
2018-05-06T09:05:57.434Z,26.80
2018-05-06T09:08:24.894Z,26.50
2018-05-06T09:10:52.366Z,26.30
2018-05-06T09:13:19.828Z,26.60
2018-05-06T09:15:47.270Z,26.30
2018-05-06T09:18:14.731Z,25.90
2018-05-06T09:20:42.168Z,25.80
2018-05-06T09:23:09.621Z,26.00
2018-05-06T09:25:37.144Z,26.10
2018-05-06T09:28:04.515Z,26.10
2018-05-06T09:30:32.722Z,25.10
2018-05-06T09:33:00.186Z,25.10
2018-05-06T09:35:28.474Z,25.20
2018-05-06T09:37:55.931Z,25.30
2018-05-06T09:40:23.381Z,26.10
2018-05-06T09:42:50.847Z,26.30
2018-05-06T09:45:18.289Z,27.00
2018-05-06T09:47:45.818Z,27.10
2018-05-06T09:50:13.277Z,27.00
2018-05-06T09:52:41.456Z,26.60
2018-05-06T09:55:08.907Z,26.50
2018-05-06T09:57:36.354Z,26.70
2018-05-06T10:00:05.333Z,27.40
2018-05-06T10:02:33.551Z,27.70
2018-05-06T10:05:02.583Z,27.60
2018-05-06T10:07:30.029Z,27.70
2018-05-06T10:09:57.911Z,27.40
2018-05-06T10:12:25.346Z,27.30
2018-05-06T10:14:52.806Z,27.00
2018-05-06T10:17:20.258Z,26.20
2018-05-06T10:19:47.701Z,26.30
2018-05-06T10:22:15.213Z,26.70
2018-05-06T10:24:42.594Z,26.90
2018-05-06T10:27:10.059Z,27.10
2018-05-06T10:29:37.519Z,26.90
2018-05-06T10:32:04.958Z,26.80
2018-05-06T10:34:32.474Z,26.90
2018-05-06T10:36:59.926Z,26.40
2018-05-06T10:39:27.372Z,25.50
2018-05-06T10:41:54.826Z,25.40
2018-05-06T10:44:22.334Z,25.30
2018-05-06T10:46:49.734Z,25.80
2018-05-06T10:49:17.240Z,25.50
2018-05-06T10:51:44.646Z,25.60
2018-05-06T10:54:12.085Z,25.50
2018-05-06T10:56:39.550Z,26.10
2018-05-06T10:59:06.995Z,26.10
2018-05-06T11:01:34.678Z,25.90
2018-05-06T11:04:02.235Z,26.40
2018-05-06T11:06:29.595Z,26.70
2018-05-06T11:08:57.046Z,26.50
2018-05-06T11:11:24.490Z,26.60
2018-05-06T11:13:52.850Z,26.60
2018-05-06T11:16:20.289Z,26.10
2018-05-06T11:18:48.514Z,25.90
2018-05-06T11:21:15.962Z,25.90
2018-05-06T11:23:43.523Z,26.40
2018-05-06T11:26:11.038Z,27.10
2018-05-06T11:28:38.415Z,26.80
2018-05-06T11:31:05.864Z,26.30
2018-05-06T11:33:33.313Z,26.20
2018-05-06T11:36:01.525Z,25.80
2018-05-06T11:38:28.971Z,25.80
2018-05-06T11:40:56.509Z,25.60
2018-05-06T11:43:23.888Z,26.70
2018-05-06T11:45:51.326Z,27.60
2018-05-06T11:48:18.776Z,26.60
2018-05-06T11:50:46.986Z,26.60
2018-05-06T11:53:14.441Z,26.50
2018-05-06T11:55:41.890Z,26.80
2018-05-06T11:58:09.338Z,26.40
2018-05-06T12:00:36.907Z,26.80
2018-05-06T12:03:04.339Z,27.30
2018-05-06T12:05:32.156Z,27.40
2018-05-06T12:07:59.591Z,27.60
2018-05-06T12:10:27.061Z,28.20
2018-05-06T12:12:54.504Z,28.30
2018-05-06T12:15:22.010Z,28.50
2018-05-06T12:17:49.386Z,27.70
2018-05-06T12:20:17.597Z,27.10
2018-05-06T12:22:45.055Z,27.10
2018-05-06T12:25:12.499Z,27.50
2018-05-06T12:27:39.965Z,27.50
2018-05-06T12:30:07.397Z,27.80
2018-05-06T12:32:34.853Z,27.40
2018-05-06T12:35:03.058Z,28.00
2018-05-06T12:37:30.513Z,28.00
2018-05-06T12:39:57.958Z,27.90
2018-05-06T12:42:25.401Z,27.30
2018-05-06T12:44:52.845Z,27.70
2018-05-06T12:47:21.462Z,29.30
2018-05-06T12:49:48.914Z,29.20
2018-05-06T12:52:16.372Z,28.60
2018-05-06T12:54:43.815Z,28.20
2018-05-06T12:57:11.257Z,27.50
2018-05-06T12:59:39.474Z,28.60
2018-05-06T13:02:06.928Z,28.50
2018-05-06T13:04:34.361Z,28.80
2018-05-06T13:07:01.827Z,28.40
2018-05-06T13:09:29.279Z,28.00
2018-05-06T13:11:56.895Z,27.90
2018-05-06T13:14:24.712Z,28.00
2018-05-06T13:16:52.142Z,27.70
2018-05-06T13:19:20.359Z,28.00
2018-05-06T13:21:47.806Z,27.90
2018-05-06T13:24:16.209Z,26.80
2018-05-06T13:26:43.662Z,26.80
2018-05-06T13:29:11.126Z,26.50
2018-05-06T13:31:38.573Z,26.70
2018-05-06T13:34:06.026Z,26.90
2018-05-06T13:36:33.486Z,26.90
2018-05-06T13:39:01.778Z,27.10
2018-05-06T13:41:29.236Z,26.40
2018-05-06T13:43:56.798Z,26.40
2018-05-06T13:46:24.937Z,26.70
2018-05-06T13:48:52.503Z,26.70
2018-05-06T13:51:19.958Z,26.70
2018-05-06T13:53:47.393Z,27.30
2018-05-06T13:56:14.846Z,27.50
2018-05-06T13:58:42.289Z,27.30
2018-05-06T14:01:10.954Z,26.90
2018-05-06T14:03:38.910Z,26.90
2018-05-06T14:06:06.675Z,27.60
2018-05-06T14:08:34.115Z,27.90
2018-05-06T14:11:01.576Z,28.00
2018-05-06T14:13:29.014Z,27.70
2018-05-06T14:15:56.480Z,27.40
2018-05-06T14:18:23.921Z,27.00
2018-05-06T14:20:51.374Z,26.90
2018-05-06T14:23:18.831Z,27.20
2018-05-06T14:25:46.272Z,27.90
2018-05-06T14:28:13.740Z,28.30
2018-05-06T14:30:41.178Z,28.10
2018-05-06T14:33:09.477Z,27.80
2018-05-06T14:35:37.350Z,27.80
2018-05-06T14:38:04.806Z,27.50
2018-05-06T14:40:32.600Z,27.90
2018-05-06T14:43:00.039Z,28.40
2018-05-06T14:45:27.497Z,28.20
2018-05-06T14:48:06.841Z,28.40
2018-05-06T14:50:34.301Z,26.90
2018-05-06T14:53:01.751Z,26.60
2018-05-06T14:55:29.199Z,26.60
2018-05-06T14:57:56.662Z,26.50
2018-05-06T15:00:24.105Z,26.30
2018-05-06T15:02:51.591Z,26.90
2018-05-06T15:05:19.034Z,27.20
2018-05-06T15:07:46.482Z,27.00
2018-05-06T15:10:13.949Z,26.60
2018-05-06T15:12:42.164Z,27.10
2018-05-06T15:15:09.614Z,27.10
2018-05-06T15:17:37.958Z,26.90
2018-05-06T15:20:05.445Z,26.60
2018-05-06T15:22:32.894Z,26.40
2018-05-06T15:25:00.354Z,26.40
2018-05-06T15:27:27.798Z,26.80
2018-05-06T15:29:55.246Z,26.80
2018-05-06T15:32:24.246Z,26.90
2018-05-06T15:34:51.694Z,26.40
2018-05-06T15:37:19.146Z,25.60
2018-05-06T15:39:46.595Z,25.30
2018-05-06T15:42:14.054Z,25.40
2018-05-06T15:44:41.502Z,25.20
2018-05-06T15:47:08.957Z,25.80
2018-05-06T15:49:36.414Z,25.50
2018-05-06T15:52:03.866Z,25.40
2018-05-06T15:54:31.314Z,25.20
2018-05-06T15:56:58.789Z,24.70
2018-05-06T15:59:27.414Z,24.60
2018-05-06T16:02:06.976Z,25.00
2018-05-06T16:04:35.184Z,24.60
2018-05-06T16:07:02.646Z,24.60
2018-05-06T16:09:30.100Z,24.80
2018-05-06T16:11:57.615Z,24.80
2018-05-06T16:14:25.057Z,24.60
2018-05-06T16:16:52.926Z,24.60
2018-05-06T16:19:20.382Z,24.70
2018-05-06T16:21:47.825Z,24.50
2018-05-06T16:24:15.273Z,24.50
2018-05-06T16:26:42.735Z,24.10
2018-05-06T16:29:10.178Z,23.80
2018-05-06T16:31:38.399Z,23.40
2018-05-06T16:34:05.865Z,23.40
2018-05-06T16:36:34.071Z,23.40
2018-05-06T16:39:02.262Z,23.40
2018-05-06T16:41:29.712Z,23.30
2018-05-06T16:43:57.202Z,23.10
2018-05-06T16:46:24.637Z,22.70
2018-05-06T16:48:52.118Z,22.30
2018-05-06T16:51:19.550Z,22.30
2018-05-06T16:53:47.318Z,22.20
2018-05-06T16:56:14.791Z,22.10
2018-05-06T16:58:42.233Z,22.10
2018-05-06T17:01:09.697Z,22.20
2018-05-06T17:03:37.134Z,22.10
2018-05-06T17:06:04.593Z,22.00
2018-05-06T17:08:32.035Z,22.00
2018-05-06T17:10:59.485Z,21.90
2018-05-06T17:13:27.260Z,21.80
2018-05-06T17:15:55.066Z,21.80
2018-05-06T17:18:22.515Z,21.70
2018-05-06T17:20:49.959Z,21.50
2018-05-06T17:23:17.406Z,21.50
2018-05-06T17:25:44.847Z,21.30
2018-05-06T17:28:12.306Z,21.20
2018-05-06T17:30:39.746Z,21.00
2018-05-06T17:33:07.193Z,21.00
2018-05-06T17:35:34.662Z,21.00
2018-05-06T17:38:02.786Z,20.90
2018-05-06T17:40:30.237Z,20.90
2018-05-06T17:42:57.686Z,20.80
2018-05-06T17:45:25.154Z,20.70
2018-05-06T17:47:52.622Z,20.60
2018-05-06T17:50:20.057Z,20.60
2018-05-06T17:52:47.513Z,20.50
2018-05-06T17:55:15.738Z,20.40
2018-05-06T17:57:44.060Z,20.40
2018-05-06T18:00:11.497Z,20.40
2018-05-06T18:02:38.948Z,20.20
2018-05-06T18:05:06.408Z,20.10
2018-05-06T18:07:33.960Z,20.10
2018-05-06T18:10:01.338Z,20.00
2018-05-06T18:12:28.785Z,19.90
2018-05-06T18:14:56.240Z,19.90
2018-05-06T18:17:23.682Z,19.80
2018-05-06T18:19:51.155Z,19.70
2018-05-06T18:22:18.602Z,19.50
2018-05-06T18:24:46.166Z,19.50
2018-05-06T18:27:13.502Z,19.30
2018-05-06T18:29:40.941Z,19.20
2018-05-06T18:32:09.658Z,19.00
2018-05-06T18:34:37.861Z,19.00
2018-05-06T18:37:05.335Z,18.90
2018-05-06T18:39:32.787Z,18.80
2018-05-06T18:42:00.233Z,18.70
2018-05-06T18:44:28.717Z,18.50
2018-05-06T18:46:56.165Z,18.50
2018-05-06T18:49:23.609Z,18.40
2018-05-06T18:51:51.078Z,18.20
2018-05-06T18:54:18.535Z,18.20
2018-05-06T18:56:46.019Z,18.10
2018-05-06T18:59:13.509Z,18.00
2018-05-06T19:01:41.771Z,17.70
2018-05-06T19:04:09.988Z,17.60
2018-05-06T19:06:37.448Z,17.50
2018-05-06T19:09:05.810Z,17.40
2018-05-06T19:11:33.271Z,17.30
2018-05-06T19:14:00.710Z,17.20
2018-05-06T19:16:28.931Z,16.90
2018-05-06T19:18:56.384Z,16.80
2018-05-06T19:21:23.827Z,16.80
2018-05-06T19:23:51.289Z,16.60
2018-05-06T19:26:18.730Z,16.40
2018-05-06T19:28:46.170Z,16.40
2018-05-06T19:31:14.390Z,16.20
2018-05-06T19:33:41.846Z,16.20
2018-05-06T19:36:09.299Z,16.20
2018-05-06T19:38:36.750Z,16.10
2018-05-06T19:41:04.210Z,16.10
2018-05-06T19:43:31.666Z,15.90
2018-05-06T19:45:59.116Z,15.80
2018-05-06T19:48:26.573Z,15.70
2018-05-06T19:50:54.027Z,15.50
2018-05-06T19:53:21.487Z,15.40
2018-05-06T19:55:48.939Z,15.30
2018-05-06T19:58:16.399Z,15.20
2018-05-06T20:00:43.869Z,15.10
2018-05-06T20:03:11.310Z,15.00
2018-05-06T20:05:38.754Z,14.90
2018-05-06T20:08:06.202Z,14.80
2018-05-06T20:10:33.697Z,14.60
2018-05-06T20:13:01.150Z,14.40
2018-05-06T20:15:28.607Z,14.30
2018-05-06T20:17:56.061Z,14.20
2018-05-06T20:20:23.510Z,14.10
2018-05-06T20:22:50.966Z,14.10
2018-05-06T20:25:18.409Z,14.10
2018-05-06T20:27:46.438Z,14.00
2018-05-06T20:30:14.285Z,14.00
2018-05-06T20:32:41.735Z,14.00
2018-05-06T20:35:09.178Z,13.80
2018-05-06T20:37:36.630Z,13.70
2018-05-06T20:40:04.826Z,13.60
2018-05-06T20:42:32.278Z,13.60
2018-05-06T20:44:59.685Z,13.50
2018-05-06T20:47:27.102Z,13.60
2018-05-06T20:49:54.528Z,13.60
2018-05-06T20:52:21.940Z,13.70
2018-05-06T20:54:50.139Z,13.60
2018-05-06T20:57:17.562Z,13.60
2018-05-06T20:59:45.761Z,13.80
2018-05-06T21:02:13.180Z,13.80
2018-05-06T21:04:40.609Z,13.70
2018-05-06T21:07:08.021Z,13.80
2018-05-06T21:09:37.016Z,13.60
2018-05-06T21:12:05.192Z,13.60
2018-05-06T21:14:32.624Z,13.50
2018-05-06T21:17:00.042Z,13.60
2018-05-06T21:19:27.467Z,13.60
2018-05-06T21:21:54.892Z,13.60
2018-05-06T21:24:22.300Z,13.50
2018-05-06T21:26:49.788Z,13.40
2018-05-06T21:29:17.213Z,13.40
2018-05-06T21:31:44.633Z,13.40
2018-05-06T21:34:12.888Z,13.30
2018-05-06T21:36:40.253Z,13.30
2018-05-06T21:39:08.547Z,13.30
2018-05-06T21:41:35.878Z,13.20
2018-05-06T21:44:03.297Z,12.90
2018-05-06T21:46:30.729Z,12.80
2018-05-06T21:48:58.162Z,12.80
2018-05-06T21:51:26.401Z,12.80
2018-05-06T21:53:53.780Z,12.80
2018-05-06T21:56:21.216Z,12.80
2018-05-06T21:58:48.639Z,12.70
2018-05-06T22:01:20.993Z,12.70
2018-05-06T22:03:48.416Z,12.60
2018-05-06T22:06:15.849Z,12.50
2018-05-06T22:08:43.284Z,12.40
2018-05-06T22:11:10.701Z,12.40
2018-05-06T22:13:39.537Z,12.30
2018-05-06T22:16:06.956Z,12.30
2018-05-06T22:18:34.381Z,12.20
2018-05-06T22:21:01.804Z,12.10
2018-05-06T22:23:29.230Z,12.00
2018-05-06T22:25:58.431Z,11.80
2018-05-06T22:28:25.844Z,11.80
2018-05-06T22:30:53.276Z,11.80
2018-05-06T22:33:20.696Z,11.80
2018-05-06T22:35:48.900Z,11.70
2018-05-06T22:38:17.256Z,11.70
2018-05-06T22:40:44.684Z,11.70
2018-05-06T22:43:12.873Z,11.90
2018-05-06T22:45:41.080Z,11.90
2018-05-06T22:48:08.513Z,11.90
2018-05-06T22:50:35.920Z,11.80
2018-05-06T22:53:03.360Z,11.80
2018-05-06T22:55:30.764Z,11.80
2018-05-06T22:57:58.956Z,11.70
2018-05-06T23:00:26.572Z,11.70
2018-05-06T23:02:54.012Z,11.80
2018-05-06T23:05:22.222Z,11.90
2018-05-06T23:07:49.641Z,11.90
2018-05-06T23:10:17.059Z,11.70
2018-05-06T23:12:44.844Z,11.70
2018-05-06T23:15:12.265Z,11.70
2018-05-06T23:17:40.440Z,11.70
2018-05-06T23:20:08.633Z,11.70
2018-05-06T23:22:36.067Z,11.70
2018-05-06T23:25:04.268Z,11.30
2018-05-06T23:27:31.672Z,11.30
2018-05-06T23:29:59.114Z,11.20
2018-05-06T23:32:26.530Z,11.10
2018-05-06T23:34:53.962Z,11.10
2018-05-06T23:37:22.145Z,10.80
2018-05-06T23:39:50.339Z,10.80
2018-05-06T23:42:17.756Z,10.80
2018-05-06T23:44:45.714Z,10.70
2018-05-06T23:47:13.148Z,10.70
2018-05-06T23:49:40.583Z,10.80
2018-05-06T23:52:08.305Z,10.80
2018-05-06T23:54:35.724Z,10.80
2018-05-06T23:57:03.153Z,10.80
2018-05-06T23:59:31.040Z,10.70
